createdAt,value
2022-11-16T00:00:18.885Z,4.25
2022-11-16T00:02:46.121Z,6.43
2022-11-16T00:05:13.268Z,4.97
2022-11-16T00:07:40.386Z,5.22
2022-11-16T00:10:07.877Z,5.95
2022-11-16T00:12:35.269Z,5.40
2022-11-16T00:15:02.337Z,4.22
2022-11-16T00:17:29.489Z,8.65
2022-11-16T00:19:56.554Z,10.27
2022-11-16T00:22:23.648Z,16.33
2022-11-16T00:24:50.780Z,28.13
2022-11-16T00:27:17.910Z,46.10
2022-11-16T00:29:45.032Z,26.02
2022-11-16T00:32:12.376Z,24.67
2022-11-16T00:34:40.193Z,22.45
2022-11-16T00:37:07.312Z,11.65
2022-11-16T00:39:34.500Z,10.82
2022-11-16T00:42:01.592Z,10.43
2022-11-16T00:44:28.703Z,9.48
2022-11-16T00:46:55.831Z,9.60
2022-11-16T00:49:22.930Z,10.43
2022-11-16T00:51:50.028Z,9.80
2022-11-16T00:54:17.117Z,10.13
2022-11-16T00:56:44.205Z,9.27
2022-11-16T00:59:11.279Z,7.82
2022-11-16T01:01:38.405Z,6.03
2022-11-16T01:04:05.561Z,6.03
2022-11-16T01:06:32.676Z,7.10
2022-11-16T01:09:00.829Z,6.38
2022-11-16T01:11:46.721Z,5.60
2022-11-16T01:14:13.837Z,5.43
2022-11-16T01:16:40.938Z,4.78
2022-11-16T01:19:08.362Z,6.13
2022-11-16T01:21:35.506Z,5.80
2022-11-16T01:24:02.786Z,9.10
2022-11-16T01:26:30.041Z,7.43
2022-11-16T01:28:59.035Z,7.13
2022-11-16T01:31:26.152Z,7.35
2022-11-16T01:33:53.267Z,9.52
2022-11-16T01:36:20.324Z,7.95
2022-11-16T01:38:47.884Z,9.32
2022-11-16T01:41:20.299Z,10.73
2022-11-16T01:44:01.512Z,7.47
2022-11-16T01:46:29.366Z,7.28
2022-11-16T01:49:04.751Z,9.35
2022-11-16T01:51:32.763Z,7.25
2022-11-16T01:54:01.368Z,6.25
2022-11-16T01:56:30.457Z,7.78
2022-11-16T01:58:57.810Z,6.78
2022-11-16T02:01:25.111Z,7.85
2022-11-16T02:03:52.284Z,7.07
2022-11-16T02:06:31.427Z,9.25
2022-11-16T02:09:24.655Z,7.25
2022-11-16T02:14:18.786Z,9.80
2022-11-16T02:17:04.797Z,11.05
2022-11-16T02:19:31.901Z,8.82
2022-11-16T02:22:17.531Z,7.47
2022-11-16T02:25:02.572Z,8.77
2022-11-16T02:27:29.650Z,9.30
2022-11-16T02:29:57.472Z,10.02
2022-11-16T02:32:30.835Z,11.95
2022-11-16T02:35:00.739Z,7.75
2022-11-16T02:37:29.801Z,8.00
2022-11-16T02:39:58.320Z,8.20
2022-11-16T02:42:34.841Z,9.18
2022-11-16T02:45:03.856Z,9.07
2022-11-16T02:47:32.705Z,11.45
2022-11-16T02:50:02.171Z,9.48
2022-11-16T02:52:29.579Z,8.82
2022-11-16T02:54:56.957Z,9.27
2022-11-16T02:57:59.400Z,10.60
2022-11-16T03:00:48.229Z,11.10
2022-11-16T03:03:16.548Z,8.50
2022-11-16T03:05:46.765Z,8.32
2022-11-16T03:08:13.827Z,9.60
2022-11-16T03:11:00.690Z,6.90
2022-11-16T03:13:29.131Z,6.80
2022-11-16T03:15:56.800Z,9.82
2022-11-16T03:18:26.589Z,7.82
2022-11-16T03:20:57.569Z,9.88
2022-11-16T03:23:24.685Z,8.25
2022-11-16T03:25:52.918Z,8.13
2022-11-16T03:28:29.557Z,8.68
2022-11-16T03:30:59.876Z,12.00
2022-11-16T03:33:33.369Z,8.52
2022-11-16T03:36:12.234Z,10.55
2022-11-16T03:38:41.440Z,10.77
2022-11-16T03:41:09.451Z,7.60
2022-11-16T03:43:37.821Z,11.75
2022-11-16T03:46:05.718Z,8.35
2022-11-16T03:48:35.499Z,8.77
2022-11-16T03:51:03.693Z,7.85
2022-11-16T03:53:30.820Z,9.18
2022-11-16T03:55:58.179Z,8.40
2022-11-16T03:58:25.269Z,11.63
2022-11-16T04:00:52.438Z,7.47
2022-11-16T04:03:19.649Z,5.95
2022-11-16T04:06:06.947Z,8.07
2022-11-16T04:08:52.867Z,8.60
2022-11-16T04:11:39.890Z,12.13
2022-11-16T04:14:25.755Z,11.20
2022-11-16T04:17:11.714Z,9.77
2022-11-16T04:19:58.446Z,13.30
2022-11-16T04:22:46.622Z,10.60
2022-11-16T04:25:22.248Z,10.60
2022-11-16T04:28:08.384Z,12.23
2022-11-16T04:30:55.494Z,11.10
2022-11-16T04:33:41.552Z,11.10
2022-11-16T04:36:27.470Z,11.40
2022-11-16T04:38:54.600Z,11.43
2022-11-16T04:41:40.351Z,14.50
2022-11-16T04:44:07.480Z,12.93
2022-11-16T04:46:53.216Z,11.68
2022-11-16T04:49:20.319Z,11.82
2022-11-16T04:51:47.416Z,11.13
2022-11-16T04:54:14.543Z,11.88
2022-11-16T04:56:41.644Z,12.02
2022-11-16T04:59:08.746Z,13.13
2022-11-16T05:01:54.534Z,15.80
2022-11-16T05:04:21.705Z,10.75
2022-11-16T05:06:48.920Z,10.57
2022-11-16T05:09:16.353Z,8.95
2022-11-16T05:11:43.583Z,9.30
2022-11-16T05:14:11.321Z,8.95
2022-11-16T05:16:38.398Z,5.90
2022-11-16T05:19:24.463Z,8.13
2022-11-16T05:21:51.541Z,4.10
2022-11-16T05:24:33.781Z,5.30
2022-11-16T05:27:01.777Z,4.22
2022-11-16T05:29:28.931Z,5.72
2022-11-16T05:31:56.037Z,5.38
2022-11-16T05:34:23.294Z,4.18
2022-11-16T05:36:50.385Z,6.10
2022-11-16T05:39:17.596Z,4.78
2022-11-16T05:41:44.695Z,3.72
2022-11-16T05:44:11.833Z,5.53
2022-11-16T05:46:38.980Z,3.70
2022-11-16T05:49:09.063Z,6.22
2022-11-16T05:51:36.947Z,4.18
2022-11-16T05:54:04.886Z,5.03
2022-11-16T05:56:32.292Z,7.07
2022-11-16T05:58:59.496Z,3.88
2022-11-16T06:01:26.695Z,4.63
2022-11-16T06:03:54.108Z,3.53
2022-11-16T06:06:21.404Z,4.55
2022-11-16T06:08:48.480Z,4.60
2022-11-16T06:11:15.589Z,4.97
2022-11-16T06:13:42.693Z,5.20
2022-11-16T06:16:09.839Z,5.18
2022-11-16T06:18:40.609Z,4.95
2022-11-16T06:21:07.960Z,5.10
2022-11-16T06:23:35.464Z,4.35
2022-11-16T06:26:02.621Z,4.40
2022-11-16T06:28:30.000Z,10.25
2022-11-16T06:30:57.308Z,8.32
2022-11-16T06:33:24.635Z,9.02
2022-11-16T06:35:51.755Z,6.50
2022-11-16T06:38:18.999Z,9.90
2022-11-16T06:41:02.207Z,7.70
2022-11-16T06:43:37.210Z,6.82
2022-11-16T06:46:04.696Z,9.82
2022-11-16T06:48:33.450Z,7.97
2022-11-16T06:51:00.957Z,10.77
2022-11-16T06:53:29.544Z,12.38
2022-11-16T06:56:00.919Z,11.32
2022-11-16T06:58:29.346Z,11.55
2022-11-16T07:00:56.480Z,10.00
2022-11-16T07:03:23.654Z,9.85
2022-11-16T07:05:50.780Z,8.18
2022-11-16T07:08:17.864Z,10.02
2022-11-16T07:10:44.943Z,13.63
2022-11-16T07:13:12.057Z,12.32
2022-11-16T07:15:39.233Z,13.40
2022-11-16T07:18:07.105Z,12.32
2022-11-16T07:20:34.627Z,10.18
2022-11-16T07:23:02.586Z,10.80
2022-11-16T07:25:29.935Z,12.45
2022-11-16T07:27:58.466Z,14.48
2022-11-16T07:30:25.833Z,13.20
2022-11-16T07:32:57.151Z,13.10
2022-11-16T07:35:24.236Z,12.52
2022-11-16T07:37:51.330Z,9.10
2022-11-16T07:40:18.479Z,9.23
2022-11-16T07:42:45.804Z,9.82
2022-11-16T07:45:13.169Z,9.23
2022-11-16T07:47:40.346Z,7.75
2022-11-16T07:50:07.883Z,8.13
2022-11-16T07:52:34.978Z,8.38
2022-11-16T07:55:02.121Z,6.97
2022-11-16T07:57:29.281Z,10.07
2022-11-16T07:59:56.422Z,8.32
2022-11-16T08:02:23.787Z,6.38
2022-11-16T08:04:51.068Z,6.95
2022-11-16T08:07:18.965Z,5.13
2022-11-16T08:09:46.217Z,6.82
2022-11-16T08:12:13.361Z,7.95
2022-11-16T08:14:40.681Z,6.72
2022-11-16T08:17:08.347Z,9.38
2022-11-16T08:19:36.575Z,6.10
2022-11-16T08:22:04.041Z,8.05
2022-11-16T08:24:31.465Z,4.43
2022-11-16T08:26:59.020Z,5.95
2022-11-16T08:29:26.581Z,4.32
2022-11-16T08:31:53.746Z,3.25
2022-11-16T08:34:21.317Z,4.82
2022-11-16T08:36:48.478Z,3.13
2022-11-16T08:39:15.590Z,4.10
2022-11-16T08:41:44.242Z,4.43
2022-11-16T08:44:11.698Z,2.67
2022-11-16T08:46:39.820Z,2.72
2022-11-16T08:49:06.969Z,4.57
2022-11-16T08:51:34.216Z,3.40
2022-11-16T08:54:03.569Z,12.32
2022-11-16T08:56:30.713Z,6.30
2022-11-16T08:58:59.311Z,2.88
2022-11-16T09:01:28.083Z,2.70
2022-11-16T09:03:55.340Z,2.75
2022-11-16T09:06:23.250Z,5.50
2022-11-16T09:08:50.681Z,2.00
2022-11-16T09:11:19.465Z,3.63
2022-11-16T09:13:47.686Z,3.13
2022-11-16T09:16:20.555Z,6.20
2022-11-16T09:21:21.862Z,2.85
2022-11-16T09:23:49.478Z,4.68
2022-11-16T09:26:18.882Z,3.65
2022-11-16T09:28:46.010Z,5.93
2022-11-16T09:31:13.148Z,4.25
2022-11-16T09:33:40.397Z,3.33
2022-11-16T09:36:08.340Z,4.43
2022-11-16T09:41:32.940Z,3.13
2022-11-16T09:44:23.133Z,3.30
2022-11-16T09:46:53.012Z,2.58
2022-11-16T09:49:22.879Z,3.40
2022-11-16T09:51:52.094Z,5.72
2022-11-16T09:54:21.967Z,2.33
2022-11-16T09:56:51.395Z,4.25
2022-11-16T09:59:22.834Z,4.00
2022-11-16T10:02:02.157Z,5.28
2022-11-16T10:04:47.195Z,5.00
2022-11-16T10:07:17.141Z,6.00
2022-11-16T10:09:44.660Z,7.47
2022-11-16T10:12:21.247Z,3.72
2022-11-16T10:14:48.345Z,5.00
2022-11-16T10:17:38.828Z,3.50
2022-11-16T10:20:05.909Z,4.20
2022-11-16T10:22:41.069Z,4.18
2022-11-16T10:25:15.409Z,3.88
2022-11-16T10:27:55.031Z,3.80
2022-11-16T10:30:22.443Z,2.13
2022-11-16T10:33:02.842Z,4.55
2022-11-16T10:35:34.609Z,3.40
2022-11-16T10:38:03.952Z,6.65
2022-11-16T10:40:36.748Z,8.48
2022-11-16T10:45:39.323Z,3.47
2022-11-16T10:48:20.557Z,3.63
2022-11-16T10:50:48.636Z,4.32
2022-11-16T10:53:16.603Z,8.02
2022-11-16T10:55:43.796Z,7.10
2022-11-16T10:58:10.913Z,3.83
2022-11-16T11:00:40.963Z,5.38
2022-11-16T11:03:10.596Z,6.32
2022-11-16T11:05:38.330Z,5.63
2022-11-16T11:08:07.293Z,4.95
2022-11-16T11:10:38.752Z,5.03
2022-11-16T11:13:11.854Z,3.10
2022-11-16T11:15:39.453Z,3.17
2022-11-16T11:18:12.967Z,5.18
2022-11-16T11:20:44.684Z,7.97
2022-11-16T11:23:18.354Z,5.18
2022-11-16T11:25:58.689Z,17.67
2022-11-16T11:28:33.229Z,12.98
2022-11-16T11:31:17.297Z,3.80
2022-11-16T11:33:50.134Z,7.32
2022-11-16T11:36:20.484Z,5.82
2022-11-16T11:39:05.059Z,3.35
2022-11-16T11:41:37.288Z,5.45
2022-11-16T11:44:05.820Z,9.95
2022-11-16T11:47:28.471Z,3.45
2022-11-16T11:49:39.079Z,3.92
2022-11-16T11:52:11.318Z,4.13
2022-11-16T11:54:46.140Z,6.10
2022-11-16T11:57:15.689Z,2.70
2022-11-16T11:59:42.857Z,3.28
2022-11-16T12:02:21.806Z,2.58
2022-11-16T12:05:07.343Z,10.90
2022-11-16T12:07:52.342Z,7.85
2022-11-16T12:10:38.296Z,4.65
2022-11-16T12:13:05.394Z,5.95
2022-11-16T12:15:36.120Z,3.33
2022-11-16T12:18:22.197Z,5.35
2022-11-16T12:21:04.648Z,6.47
2022-11-16T12:23:38.613Z,29.48
2022-11-16T12:26:11.640Z,11.80
2022-11-16T12:28:51.363Z,3.22
2022-11-16T12:31:27.950Z,2.83
2022-11-16T12:34:15.303Z,8.55
2022-11-16T12:37:05.028Z,6.80
2022-11-16T12:39:32.410Z,19.15
2022-11-16T12:42:05.794Z,8.65
2022-11-16T12:44:40.014Z,26.58
2022-11-16T12:47:23.366Z,4.80
2022-11-16T12:49:52.288Z,5.47
2022-11-16T12:52:28.601Z,7.30
2022-11-16T12:55:25.735Z,5.57
2022-11-16T12:57:58.387Z,9.05
2022-11-16T13:00:26.181Z,7.15
2022-11-16T13:02:53.228Z,4.65
2022-11-16T13:05:23.304Z,4.68
2022-11-16T13:08:03.677Z,21.67
2022-11-16T13:10:43.001Z,12.38
2022-11-16T13:13:35.417Z,5.18
2022-11-16T13:16:04.958Z,6.55
2022-11-16T13:18:33.895Z,16.52
2022-11-16T13:21:03.826Z,7.70
2022-11-16T13:23:37.028Z,8.48
2022-11-16T13:26:24.549Z,3.78
2022-11-16T13:28:51.667Z,6.20
2022-11-16T13:31:26.172Z,5.55
2022-11-16T13:33:56.187Z,6.05
2022-11-16T13:36:32.339Z,5.28
2022-11-16T13:38:59.428Z,5.70
2022-11-16T13:41:28.815Z,5.55
2022-11-16T13:43:56.187Z,4.55
2022-11-16T13:46:54.324Z,5.35
2022-11-16T13:49:31.732Z,7.57
2022-11-16T13:52:22.601Z,5.60
2022-11-16T13:54:52.698Z,5.72
2022-11-16T13:57:25.989Z,4.63
2022-11-16T14:00:08.104Z,8.05
2022-11-16T14:02:36.039Z,5.90
2022-11-16T14:05:06.526Z,5.80
2022-11-16T14:07:33.817Z,5.90
2022-11-16T14:10:01.902Z,5.20
2022-11-16T14:12:47.484Z,6.15
2022-11-16T14:15:16.345Z,5.72
2022-11-16T14:17:50.281Z,4.88
2022-11-16T14:20:25.742Z,4.72
2022-11-16T14:23:02.043Z,5.07
2022-11-16T14:25:31.758Z,4.35
2022-11-16T14:28:03.816Z,4.80
2022-11-16T14:30:33.625Z,5.43
2022-11-16T14:33:00.763Z,3.35
2022-11-16T14:35:39.593Z,4.78
2022-11-16T14:38:26.464Z,4.72
2022-11-16T14:40:59.383Z,5.75
2022-11-16T14:43:35.619Z,7.50
2022-11-16T14:46:05.112Z,5.43
2022-11-16T14:48:32.524Z,5.90
2022-11-16T14:51:23.177Z,3.85
2022-11-16T14:53:53.392Z,4.40
2022-11-16T14:56:20.689Z,4.97
2022-11-16T14:58:55.108Z,7.60
2022-11-16T15:01:24.160Z,7.85
2022-11-16T15:04:02.537Z,6.50
2022-11-16T15:06:31.035Z,4.85
2022-11-16T15:09:02.909Z,6.68
2022-11-16T15:11:51.038Z,4.03
2022-11-16T15:14:20.542Z,3.90
2022-11-16T15:16:51.951Z,7.32
2022-11-16T15:19:19.631Z,4.85
2022-11-16T15:21:57.091Z,4.15
2022-11-16T15:24:30.523Z,7.32
2022-11-16T15:27:11.565Z,8.75
2022-11-16T15:29:38.969Z,8.57
2022-11-16T15:32:07.592Z,5.38
2022-11-16T15:34:34.823Z,7.13
2022-11-16T15:37:02.003Z,8.25
2022-11-16T15:39:33.364Z,7.10
2022-11-16T15:42:04.019Z,6.60
2022-11-16T15:44:32.031Z,11.07
2022-11-16T15:46:59.578Z,7.60
2022-11-16T15:49:26.654Z,10.30
2022-11-16T15:51:53.819Z,8.73
2022-11-16T15:54:25.378Z,7.70
2022-11-16T15:56:53.804Z,9.68
2022-11-16T15:59:24.641Z,10.73
2022-11-16T16:01:51.864Z,16.55
2022-11-16T16:04:19.196Z,16.40
2022-11-16T16:06:46.297Z,22.15
2022-11-16T16:09:19.064Z,21.00
2022-11-16T16:14:21.689Z,14.90
2022-11-16T16:16:53.374Z,13.73
2022-11-16T16:19:29.645Z,19.70
2022-11-16T16:21:58.573Z,29.75
2022-11-16T16:24:41.331Z,33.28
2022-11-16T16:27:18.851Z,28.30
2022-11-16T16:29:49.785Z,19.48
2022-11-16T16:32:23.950Z,19.20
2022-11-16T16:34:51.590Z,16.73
2022-11-16T16:37:18.724Z,19.20
2022-11-16T16:39:45.896Z,21.70
2022-11-16T16:42:14.397Z,16.40
2022-11-16T16:44:41.956Z,16.15
2022-11-16T16:47:09.504Z,12.82
2022-11-16T16:49:36.914Z,18.58
2022-11-16T16:52:04.753Z,18.15
2022-11-16T16:54:31.911Z,18.45
2022-11-16T16:57:01.301Z,16.13
2022-11-16T16:59:30.094Z,16.90
2022-11-16T17:01:59.106Z,13.65
2022-11-16T17:04:26.838Z,17.02
2022-11-16T17:06:54.152Z,11.75
2022-11-16T17:09:21.342Z,11.15
2022-11-16T17:11:48.626Z,15.35
2022-11-16T17:14:15.846Z,12.43
2022-11-16T17:16:43.056Z,12.07
2022-11-16T17:19:10.145Z,12.98
2022-11-16T17:21:37.225Z,13.27
2022-11-16T17:24:04.553Z,17.25
2022-11-16T17:26:31.651Z,19.05
2022-11-16T17:28:59.157Z,17.52
2022-11-16T17:31:27.893Z,13.52
2022-11-16T17:33:57.697Z,13.63
2022-11-16T17:36:24.804Z,10.38
2022-11-16T17:38:52.122Z,10.55
2022-11-16T17:41:23.999Z,11.65
2022-11-16T17:43:53.252Z,23.43
2022-11-16T17:46:21.966Z,13.07
2022-11-16T17:48:49.517Z,12.10
2022-11-16T17:51:17.940Z,14.75
2022-11-16T17:53:45.288Z,10.98
2022-11-16T17:56:16.138Z,14.63
2022-11-16T17:58:45.155Z,16.20
2022-11-16T18:01:12.586Z,15.23
2022-11-16T18:03:40.180Z,13.57
2022-11-16T18:06:08.840Z,15.02
2022-11-16T18:08:36.594Z,16.95
2022-11-16T18:11:19.008Z,12.77
2022-11-16T18:13:46.968Z,15.98
2022-11-16T18:16:15.685Z,13.32
2022-11-16T18:18:42.836Z,16.60
2022-11-16T18:21:13.546Z,12.00
2022-11-16T18:23:43.073Z,14.38
2022-11-16T18:26:17.334Z,10.80
2022-11-16T18:28:48.131Z,13.95
2022-11-16T18:31:16.387Z,16.55
2022-11-16T18:33:43.818Z,13.50
2022-11-16T18:36:11.347Z,12.18
2022-11-16T18:38:38.629Z,18.90
2022-11-16T18:41:14.717Z,34.08
2022-11-16T18:43:42.624Z,30.38
2022-11-16T18:46:09.697Z,32.05
2022-11-16T18:48:36.840Z,33.08
2022-11-16T18:51:04.919Z,26.92
2022-11-16T18:53:33.687Z,27.25
2022-11-16T18:56:01.405Z,26.42
2022-11-16T18:58:50.325Z,18.85
2022-11-16T19:01:16.648Z,20.50
2022-11-16T19:03:43.875Z,16.33
2022-11-16T19:06:11.740Z,13.10
2022-11-16T19:08:39.400Z,17.60
2022-11-16T19:11:07.584Z,16.98
2022-11-16T19:13:35.335Z,17.52
2022-11-16T19:16:02.748Z,16.95
2022-11-16T19:18:29.851Z,18.75
2022-11-16T19:21:07.580Z,22.10
2022-11-16T19:23:42.751Z,37.25
2022-11-16T19:26:10.301Z,27.05
2022-11-16T19:28:38.192Z,30.08
2022-11-16T19:31:14.641Z,29.15
2022-11-16T19:33:41.943Z,29.90
2022-11-16T19:36:10.652Z,23.20
2022-11-16T19:38:37.925Z,22.10
2022-11-16T19:41:05.262Z,19.80
2022-11-16T19:43:33.221Z,23.10
2022-11-16T19:46:04.655Z,21.33
2022-11-16T19:48:35.161Z,20.58
2022-11-16T19:51:06.417Z,19.10
2022-11-16T19:53:33.876Z,17.95
2022-11-16T19:56:01.246Z,22.98
2022-11-16T19:58:28.727Z,21.05
2022-11-16T20:01:07.447Z,21.77
2022-11-16T20:03:34.993Z,14.57
2022-11-16T20:06:06.397Z,33.78
2022-11-16T20:08:33.585Z,17.08
2022-11-16T20:11:00.681Z,24.65
2022-11-16T20:13:27.852Z,27.38
2022-11-16T20:15:54.946Z,21.88
2022-11-16T20:18:22.080Z,29.52
2022-11-16T20:20:49.188Z,23.42
2022-11-16T20:23:16.331Z,23.98
2022-11-16T20:25:43.437Z,20.50
2022-11-16T20:28:11.090Z,17.25
2022-11-16T20:30:38.208Z,20.15
2022-11-16T20:33:05.289Z,18.63
2022-11-16T20:35:33.761Z,18.02
2022-11-16T20:38:00.952Z,20.33
2022-11-16T20:40:28.233Z,22.83
2022-11-16T20:42:58.995Z,21.90
2022-11-16T20:45:26.390Z,15.20
2022-11-16T20:47:53.581Z,15.25
2022-11-16T20:50:20.691Z,17.30
2022-11-16T20:52:52.556Z,15.15
2022-11-16T20:55:19.992Z,13.00
2022-11-16T20:57:49.958Z,11.90
2022-11-16T21:00:17.428Z,12.20
2022-11-16T21:02:44.564Z,14.15
2022-11-16T21:05:11.761Z,14.13
2022-11-16T21:07:41.599Z,14.60
2022-11-16T21:10:18.433Z,13.48
2022-11-16T21:13:04.165Z,13.80
2022-11-16T21:15:31.469Z,15.35
2022-11-16T21:17:58.775Z,16.15
2022-11-16T21:20:27.848Z,15.07
2022-11-16T21:22:55.469Z,14.15
2022-11-16T21:25:22.622Z,11.02
2022-11-16T21:27:49.924Z,13.05
2022-11-16T21:30:17.293Z,11.07
2022-11-16T21:32:44.452Z,22.23
2022-11-16T21:35:11.587Z,35.60
2022-11-16T21:37:38.670Z,15.38
2022-11-16T21:40:05.983Z,16.73
2022-11-16T21:42:33.081Z,12.02
2022-11-16T21:45:00.221Z,12.80
2022-11-16T21:47:27.342Z,16.15
2022-11-16T21:50:24.905Z,9.68
2022-11-16T21:52:41.508Z,10.35
2022-11-16T21:55:08.878Z,9.27
2022-11-16T21:57:36.040Z,11.00
2022-11-16T22:00:03.229Z,9.70
2022-11-16T22:02:30.342Z,10.20
2022-11-16T22:05:16.062Z,12.15
2022-11-16T22:07:43.455Z,9.38
2022-11-16T22:10:11.333Z,10.57
2022-11-16T22:12:38.917Z,10.57
2022-11-16T22:15:07.525Z,8.45
2022-11-16T22:17:34.749Z,9.30
2022-11-16T22:20:01.914Z,11.50
2022-11-16T22:22:29.003Z,13.95
2022-11-16T22:24:56.170Z,12.48
2022-11-16T22:27:23.335Z,9.77
2022-11-16T22:29:50.429Z,12.68
2022-11-16T22:32:17.525Z,10.32
2022-11-16T22:34:44.677Z,9.45
2022-11-16T22:37:11.794Z,10.52
2022-11-16T22:39:38.901Z,14.23
2022-11-16T22:42:06.144Z,10.63
2022-11-16T22:44:33.270Z,15.90
2022-11-16T22:47:00.395Z,11.70
2022-11-16T22:49:27.605Z,8.38
2022-11-16T22:51:54.829Z,10.57
2022-11-16T22:54:28.361Z,14.00
2022-11-16T22:56:55.778Z,17.15
2022-11-16T22:59:22.897Z,13.25
2022-11-16T23:01:50.003Z,12.38
2022-11-16T23:04:17.079Z,9.05
2022-11-16T23:06:44.170Z,7.68
2022-11-16T23:09:11.270Z,19.23
2022-11-16T23:11:56.860Z,11.15
2022-11-16T23:14:42.685Z,8.25
2022-11-16T23:17:09.945Z,9.93
2022-11-16T23:19:55.604Z,7.47
2022-11-16T23:22:41.633Z,8.63
2022-11-16T23:25:29.504Z,11.02
2022-11-16T23:28:02.888Z,7.15
2022-11-16T23:30:29.972Z,7.40
2022-11-16T23:32:57.056Z,8.70
2022-11-16T23:35:24.256Z,8.48
2022-11-16T23:37:57.186Z,6.50
2022-11-16T23:40:25.913Z,7.43
2022-11-16T23:43:12.547Z,8.95
2022-11-16T23:45:40.508Z,7.63
2022-11-16T23:48:08.310Z,6.65
2022-11-16T23:50:35.706Z,6.82
2022-11-16T23:53:02.854Z,10.43
2022-11-16T23:55:29.992Z,7.57
2022-11-16T23:57:57.069Z,8.95
